KAVXKNUC

Guest
Details From KAVX - Catalina
To KNUC - San Clemente Island Nalf
Flight Number -
Tags Decoded
Created
Modified
Stats Distance 25 nm / 46 km
Max Altitude 0 ft / 0 m
Waypoints 2
Social Downloads 3
Likes 0
Share VATSIM

Download

Looking for another format? Having issues loading an existing format? Contact us
Advertisement - Login to hide

Notes

Decoded

Route

KAVX KNUC

ID Type Via Altitude Latitude Longitude Leg Dist Tot Dist Heading (true) Name
O KAVX APT - 0 ft / 0 m 33.40219˚ -118.42008˚ - 0 nm - Catalina
O KNUC APT - 0 ft / 0 m 33.01781˚ -118.60248˚ 24 nm 24 nm 202° / 202° -

Altitude Profile

Advertisement - Login to hide

KAVX

Details ICAO KAVX (AVX)
Name Catalina
Region United States
Timezone America/Los_Angeles (UTC-8.0)
Stats Elevation 1,601 ft / 488 m (AMSL)
Location 33.404656° -118.415880°
Runways 1
Magnetic Variation 11.901° E

METAR

KAVX 141751Z AUTO 12010KT 10SM CLR 22/M13 A3006 RMK AO2 SLP157 T02171128 10222 20172 51015

Decode

TAF

Not found

Departure Runways

ID Width Length Bearing (true) Bearing (mag) Surface Threshold Offset Overrun Length
04 59 ft / 18 m 3,127 ft / 953 m 54.93° 43.03° Asphalt 131 ft / 40 m 0 ft / 0 m
22 59 ft / 18 m 3,127 ft / 953 m 234.93° 223.03° Asphalt 62 ft / 19 m 0 ft / 0 m

KNUC

Details ICAO KNUC
Name San Clemente Island Nalf
Region United States
Timezone America/Los_Angeles (UTC-8.0)
Stats Elevation 182 ft / 55 m (AMSL)
Location 33.022745° -118.588487°
Runways 1
Magnetic Variation 11.860° E

METAR

KNUC 141756Z VRB04KT 10SM FEW250 17/14 A3005 RMK SLP173 T01720139 10172 20133 53015

Decode

TAF

TAF KNUC 1415/1515 VRB06KT 3200 BR BKN001 BKN250 WSCONDS 530106 QNH2996INS TEMPO 1415/1418 6000 BR SCT005 SCT250 BECMG 1418/1419 35007KT 9999 NSW FEW010 FEW250 WSCONDS 530106 QNH2998INS FM150200 VRB06KT 9999 FEW250 500000 QNH3002INS T23/1422Z T12/1513Z FS30020

Decode

Destination Runways

ID Width Length Bearing (true) Bearing (mag) Surface Threshold Offset Overrun Length
05 200 ft / 61 m 9,290 ft / 2,832 m 67.19° 55.33° Concrete 0 ft / 0 m 0 ft / 0 m
23 200 ft / 61 m 9,290 ft / 2,832 m 247.20° 235.34° Concrete 0 ft / 0 m 0 ft / 0 m

Popular Alternatives